sensor_id;sensor_type;location;lat;lon;timestamp;P1;durP1;ratioP1;P2;durP2;ratioP2
43224;SDS011;28834;48.720;9.208;2022-07-29T00:00:35;8.17;;;7.47;;
43224;SDS011;28834;48.720;9.208;2022-07-29T00:03:01;8.10;;;6.90;;
43224;SDS011;28834;48.720;9.208;2022-07-29T00:05:28;6.57;;;5.97;;
43224;SDS011;28834;48.720;9.208;2022-07-29T00:07:53;7.60;;;6.97;;
43224;SDS011;28834;48.720;9.208;2022-07-29T00:10:19;7.50;;;6.90;;
43224;SDS011;28834;48.720;9.208;2022-07-29T00:12:45;9.53;;;8.47;;
43224;SDS011;28834;48.720;9.208;2022-07-29T00:15:11;8.20;;;7.50;;
43224;SDS011;28834;48.720;9.208;2022-07-29T00:17:36;8.77;;;8.07;;
43224;SDS011;28834;48.720;9.208;2022-07-29T00:20:02;8.90;;;8.20;;
43224;SDS011;28834;48.720;9.208;2022-07-29T00:22:28;8.73;;;7.87;;
43224;SDS011;28834;48.720;9.208;2022-07-29T00:24:54;8.23;;;7.53;;
43224;SDS011;28834;48.720;9.208;2022-07-29T00:27:19;8.30;;;7.47;;
43224;SDS011;28834;48.720;9.208;2022-07-29T00:29:45;8.13;;;7.47;;
43224;SDS011;28834;48.720;9.208;2022-07-29T00:32:11;7.43;;;6.90;;
43224;SDS011;28834;48.720;9.208;2022-07-29T00:34:36;7.80;;;7.20;;
43224;SDS011;28834;48.720;9.208;2022-07-29T00:37:20;6.97;;;6.47;;
43224;SDS011;28834;48.720;9.208;2022-07-29T00:39:46;7.53;;;6.93;;
43224;SDS011;28834;48.720;9.208;2022-07-29T00:42:11;8.17;;;7.17;;
43224;SDS011;28834;48.720;9.208;2022-07-29T00:44:38;7.87;;;7.20;;
43224;SDS011;28834;48.720;9.208;2022-07-29T00:47:04;7.37;;;6.77;;
43224;SDS011;28834;48.720;9.208;2022-07-29T00:49:30;7.10;;;6.60;;
43224;SDS011;28834;48.720;9.208;2022-07-29T00:51:57;8.10;;;6.97;;
43224;SDS011;28834;48.720;9.208;2022-07-29T00:54:23;8.03;;;7.13;;
43224;SDS011;28834;48.720;9.208;2022-07-29T00:56:48;7.00;;;6.40;;
43224;SDS011;28834;48.720;9.208;2022-07-29T00:59:14;7.40;;;6.70;;
43224;SDS011;28834;48.720;9.208;2022-07-29T01:01:40;6.60;;;6.10;;
43224;SDS011;28834;48.720;9.208;2022-07-29T01:04:05;7.30;;;6.50;;
43224;SDS011;28834;48.720;9.208;2022-07-29T01:06:31;7.33;;;6.70;;
43224;SDS011;28834;48.720;9.208;2022-07-29T01:08:58;7.20;;;6.57;;
43224;SDS011;28834;48.720;9.208;2022-07-29T01:11:25;6.43;;;5.93;;
43224;SDS011;28834;48.720;9.208;2022-07-29T01:13:51;7.07;;;6.37;;
43224;SDS011;28834;48.720;9.208;2022-07-29T01:16:34;6.23;;;5.73;;
43224;SDS011;28834;48.720;9.208;2022-07-29T01:19:20;7.23;;;6.63;;
43224;SDS011;28834;48.720;9.208;2022-07-29T01:28:20;8.10;;;6.50;;
43224;SDS011;28834;48.720;9.208;2022-07-29T01:31:07;6.10;;;5.60;;
43224;SDS011;28834;48.720;9.208;2022-07-29T01:33:36;6.30;;;5.90;;
43224;SDS011;28834;48.720;9.208;2022-07-29T01:36:35;6.40;;;5.80;;
43224;SDS011;28834;48.720;9.208;2022-07-29T01:39:18;6.30;;;5.70;;
43224;SDS011;28834;48.720;9.208;2022-07-29T01:42:02;6.20;;;5.60;;
43224;SDS011;28834;48.720;9.208;2022-07-29T01:44:39;6.07;;;5.57;;
43224;SDS011;28834;48.720;9.208;2022-07-29T01:47:12;6.00;;;5.50;;
43224;SDS011;28834;48.720;9.208;2022-07-29T01:49:43;6.60;;;5.90;;
43224;SDS011;28834;48.720;9.208;2022-07-29T01:52:23;6.73;;;6.23;;
43224;SDS011;28834;48.720;9.208;2022-07-29T01:54:57;6.93;;;6.33;;
43224;SDS011;28834;48.720;9.208;2022-07-29T01:57:26;5.90;;;5.50;;
43224;SDS011;28834;48.720;9.208;2022-07-29T01:59:54;6.67;;;6.07;;
43224;SDS011;28834;48.720;9.208;2022-07-29T02:02:22;7.17;;;5.77;;
43224;SDS011;28834;48.720;9.208;2022-07-29T02:04:49;6.07;;;5.50;;
43224;SDS011;28834;48.720;9.208;2022-07-29T02:07:18;6.17;;;5.57;;
43224;SDS011;28834;48.720;9.208;2022-07-29T02:09:45;6.53;;;5.40;;
43224;SDS011;28834;48.720;9.208;2022-07-29T02:12:14;6.10;;;5.60;;
43224;SDS011;28834;48.720;9.208;2022-07-29T02:14:43;5.47;;;5.07;;
43224;SDS011;28834;48.720;9.208;2022-07-29T02:17:12;5.20;;;4.70;;
43224;SDS011;28834;48.720;9.208;2022-07-29T02:19:40;6.10;;;5.63;;
43224;SDS011;28834;48.720;9.208;2022-07-29T02:22:09;5.70;;;5.20;;
43224;SDS011;28834;48.720;9.208;2022-07-29T02:24:36;6.30;;;5.80;;
43224;SDS011;28834;48.720;9.208;2022-07-29T02:27:05;5.70;;;5.30;;
43224;SDS011;28834;48.720;9.208;2022-07-29T02:29:32;5.97;;;5.57;;
43224;SDS011;28834;48.720;9.208;2022-07-29T02:31:58;5.77;;;5.33;;
43224;SDS011;28834;48.720;9.208;2022-07-29T02:34:25;5.57;;;5.17;;
43224;SDS011;28834;48.720;9.208;2022-07-29T02:36:53;6.30;;;5.60;;
43224;SDS011;28834;48.720;9.208;2022-07-29T02:39:20;6.20;;;5.70;;
43224;SDS011;28834;48.720;9.208;2022-07-29T02:41:48;6.07;;;5.50;;
43224;SDS011;28834;48.720;9.208;2022-07-29T02:44:20;5.50;;;5.00;;
43224;SDS011;28834;48.720;9.208;2022-07-29T02:47:02;6.03;;;5.40;;
43224;SDS011;28834;48.720;9.208;2022-07-29T02:49:34;5.97;;;5.37;;
43224;SDS011;28834;48.720;9.208;2022-07-29T02:52:18;5.77;;;5.33;;
43224;SDS011;28834;48.720;9.208;2022-07-29T02:55:25;5.60;;;4.93;;
43224;SDS011;28834;48.720;9.208;2022-07-29T02:58:15;5.10;;;4.70;;
43224;SDS011;28834;48.720;9.208;2022-07-29T03:00:53;5.73;;;5.23;;
43224;SDS011;28834;48.720;9.208;2022-07-29T03:03:21;6.30;;;5.80;;
43224;SDS011;28834;48.720;9.208;2022-07-29T03:05:52;6.10;;;5.70;;
43224;SDS011;28834;48.720;9.208;2022-07-29T03:08:22;6.23;;;5.80;;
43224;SDS011;28834;48.720;9.208;2022-07-29T03:10:48;6.00;;;5.50;;
43224;SDS011;28834;48.720;9.208;2022-07-29T03:13:15;6.13;;;5.63;;
43224;SDS011;28834;48.720;9.208;2022-07-29T03:15:42;6.40;;;5.80;;
43224;SDS011;28834;48.720;9.208;2022-07-29T03:18:09;6.90;;;5.67;;
43224;SDS011;28834;48.720;9.208;2022-07-29T03:20:35;6.87;;;5.77;;
43224;SDS011;28834;48.720;9.208;2022-07-29T03:23:02;6.47;;;5.97;;
43224;SDS011;28834;48.720;9.208;2022-07-29T03:25:27;6.17;;;5.77;;
43224;SDS011;28834;48.720;9.208;2022-07-29T03:27:53;8.43;;;6.50;;
43224;SDS011;28834;48.720;9.208;2022-07-29T03:30:19;5.77;;;5.37;;
43224;SDS011;28834;48.720;9.208;2022-07-29T03:32:44;6.47;;;5.77;;
43224;SDS011;28834;48.720;9.208;2022-07-29T03:35:10;7.00;;;6.30;;
43224;SDS011;28834;48.720;9.208;2022-07-29T03:37:36;6.53;;;5.97;;
43224;SDS011;28834;48.720;9.208;2022-07-29T03:40:03;7.10;;;6.40;;
43224;SDS011;28834;48.720;9.208;2022-07-29T03:42:32;6.33;;;5.90;;
43224;SDS011;28834;48.720;9.208;2022-07-29T03:45:02;6.30;;;5.87;;
43224;SDS011;28834;48.720;9.208;2022-07-29T03:47:30;6.50;;;6.00;;
43224;SDS011;28834;48.720;9.208;2022-07-29T03:50:04;6.80;;;6.23;;
43224;SDS011;28834;48.720;9.208;2022-07-29T03:52:32;6.60;;;6.10;;
43224;SDS011;28834;48.720;9.208;2022-07-29T03:54:58;7.30;;;5.97;;
43224;SDS011;28834;48.720;9.208;2022-07-29T03:57:24;6.27;;;5.77;;
43224;SDS011;28834;48.720;9.208;2022-07-29T03:59:52;7.50;;;6.53;;
43224;SDS011;28834;48.720;9.208;2022-07-29T04:02:19;6.70;;;6.20;;
43224;SDS011;28834;48.720;9.208;2022-07-29T04:04:45;5.37;;;4.97;;
43224;SDS011;28834;48.720;9.208;2022-07-29T04:07:12;6.40;;;5.90;;
43224;SDS011;28834;48.720;9.208;2022-07-29T04:09:38;6.27;;;5.77;;
43224;SDS011;28834;48.720;9.208;2022-07-29T04:12:04;6.20;;;5.70;;
43224;SDS011;28834;48.720;9.208;2022-07-29T04:14:31;6.17;;;5.67;;
43224;SDS011;28834;48.720;9.208;2022-07-29T04:16:58;6.37;;;5.87;;
43224;SDS011;28834;48.720;9.208;2022-07-29T04:19:24;5.97;;;5.57;;
43224;SDS011;28834;48.720;9.208;2022-07-29T04:21:50;6.77;;;6.20;;
43224;SDS011;28834;48.720;9.208;2022-07-29T04:24:16;6.30;;;5.80;;
43224;SDS011;28834;48.720;9.208;2022-07-29T04:26:42;6.03;;;5.53;;
43224;SDS011;28834;48.720;9.208;2022-07-29T04:29:08;6.50;;;5.90;;
43224;SDS011;28834;48.720;9.208;2022-07-29T04:31:33;6.47;;;5.90;;
43224;SDS011;28834;48.720;9.208;2022-07-29T04:33:59;6.03;;;5.53;;
43224;SDS011;28834;48.720;9.208;2022-07-29T04:36:25;6.17;;;5.70;;
43224;SDS011;28834;48.720;9.208;2022-07-29T04:38:50;6.63;;;5.63;;
43224;SDS011;28834;48.720;9.208;2022-07-29T04:41:16;5.77;;;5.27;;
43224;SDS011;28834;48.720;9.208;2022-07-29T04:43:41;6.23;;;5.73;;
43224;SDS011;28834;48.720;9.208;2022-07-29T04:46:07;5.90;;;5.50;;
43224;SDS011;28834;48.720;9.208;2022-07-29T04:48:33;5.37;;;4.97;;
43224;SDS011;28834;48.720;9.208;2022-07-29T04:50:58;5.73;;;5.33;;
43224;SDS011;28834;48.720;9.208;2022-07-29T04:53:24;4.33;;;4.03;;
43224;SDS011;28834;48.720;9.208;2022-07-29T04:55:50;5.60;;;5.10;;
43224;SDS011;28834;48.720;9.208;2022-07-29T04:58:16;6.17;;;5.47;;
43224;SDS011;28834;48.720;9.208;2022-07-29T05:00:42;5.07;;;4.70;;
43224;SDS011;28834;48.720;9.208;2022-07-29T05:03:07;5.70;;;5.17;;
43224;SDS011;28834;48.720;9.208;2022-07-29T05:05:33;5.90;;;5.40;;
43224;SDS011;28834;48.720;9.208;2022-07-29T05:07:59;5.30;;;4.90;;
43224;SDS011;28834;48.720;9.208;2022-07-29T05:10:24;5.53;;;4.60;;
43224;SDS011;28834;48.720;9.208;2022-07-29T05:12:50;5.60;;;5.10;;
43224;SDS011;28834;48.720;9.208;2022-07-29T05:15:16;4.50;;;4.17;;
43224;SDS011;28834;48.720;9.208;2022-07-29T05:17:42;4.80;;;4.40;;
43224;SDS011;28834;48.720;9.208;2022-07-29T05:20:08;5.50;;;5.00;;
43224;SDS011;28834;48.720;9.208;2022-07-29T05:22:34;4.77;;;4.37;;
43224;SDS011;28834;48.720;9.208;2022-07-29T05:25:00;4.73;;;4.17;;
43224;SDS011;28834;48.720;9.208;2022-07-29T05:27:26;4.67;;;4.27;;
43224;SDS011;28834;48.720;9.208;2022-07-29T05:29:51;4.10;;;3.77;;
43224;SDS011;28834;48.720;9.208;2022-07-29T05:32:17;3.93;;;3.60;;
43224;SDS011;28834;48.720;9.208;2022-07-29T05:34:42;3.57;;;3.27;;
43224;SDS011;28834;48.720;9.208;2022-07-29T05:37:08;4.83;;;3.70;;
43224;SDS011;28834;48.720;9.208;2022-07-29T05:39:33;4.00;;;3.70;;
43224;SDS011;28834;48.720;9.208;2022-07-29T05:41:59;4.07;;;3.77;;
43224;SDS011;28834;48.720;9.208;2022-07-29T05:44:25;4.43;;;2.83;;
43224;SDS011;28834;48.720;9.208;2022-07-29T05:46:50;3.40;;;3.10;;
43224;SDS011;28834;48.720;9.208;2022-07-29T05:49:16;3.53;;;3.23;;
43224;SDS011;28834;48.720;9.208;2022-07-29T05:51:41;2.93;;;2.73;;
43224;SDS011;28834;48.720;9.208;2022-07-29T05:54:07;4.13;;;2.57;;
43224;SDS011;28834;48.720;9.208;2022-07-29T05:56:33;3.13;;;2.83;;
43224;SDS011;28834;48.720;9.208;2022-07-29T05:58:58;2.87;;;2.20;;
43224;SDS011;28834;48.720;9.208;2022-07-29T06:01:24;3.53;;;2.60;;
43224;SDS011;28834;48.720;9.208;2022-07-29T06:03:49;3.00;;;2.70;;
43224;SDS011;28834;48.720;9.208;2022-07-29T06:06:15;2.90;;;2.67;;
43224;SDS011;28834;48.720;9.208;2022-07-29T06:08:41;3.60;;;2.70;;
43224;SDS011;28834;48.720;9.208;2022-07-29T06:11:11;2.97;;;2.60;;
43224;SDS011;28834;48.720;9.208;2022-07-29T06:13:37;3.90;;;2.80;;
43224;SDS011;28834;48.720;9.208;2022-07-29T06:16:03;3.80;;;2.30;;
43224;SDS011;28834;48.720;9.208;2022-07-29T06:18:29;2.40;;;2.00;;
43224;SDS011;28834;48.720;9.208;2022-07-29T06:20:54;2.90;;;2.20;;
43224;SDS011;28834;48.720;9.208;2022-07-29T06:23:20;2.83;;;2.63;;
43224;SDS011;28834;48.720;9.208;2022-07-29T06:25:46;4.77;;;2.30;;
43224;SDS011;28834;48.720;9.208;2022-07-29T06:28:12;2.67;;;2.47;;
43224;SDS011;28834;48.720;9.208;2022-07-29T06:30:38;2.47;;;1.80;;
43224;SDS011;28834;48.720;9.208;2022-07-29T06:33:04;2.83;;;2.27;;
43224;SDS011;28834;48.720;9.208;2022-07-29T06:35:30;2.60;;;1.70;;
43224;SDS011;28834;48.720;9.208;2022-07-29T06:37:57;2.23;;;1.70;;
43224;SDS011;28834;48.720;9.208;2022-07-29T06:40:23;2.57;;;2.37;;
43224;SDS011;28834;48.720;9.208;2022-07-29T06:43:07;2.10;;;1.87;;
43224;SDS011;28834;48.720;9.208;2022-07-29T06:45:33;3.23;;;2.37;;
43224;SDS011;28834;48.720;9.208;2022-07-29T06:47:59;4.60;;;2.40;;
43224;SDS011;28834;48.720;9.208;2022-07-29T06:50:25;4.23;;;2.00;;
43224;SDS011;28834;48.720;9.208;2022-07-29T06:52:51;2.27;;;2.13;;
43224;SDS011;28834;48.720;9.208;2022-07-29T06:55:17;2.67;;;2.43;;
43224;SDS011;28834;48.720;9.208;2022-07-29T06:57:44;5.13;;;2.70;;
43224;SDS011;28834;48.720;9.208;2022-07-29T07:00:10;2.33;;;2.13;;
43224;SDS011;28834;48.720;9.208;2022-07-29T07:02:36;3.10;;;2.90;;
43224;SDS011;28834;48.720;9.208;2022-07-29T07:05:02;3.13;;;2.93;;
43224;SDS011;28834;48.720;9.208;2022-07-29T07:07:27;3.53;;;2.63;;
43224;SDS011;28834;48.720;9.208;2022-07-29T07:09:53;2.70;;;2.50;;
43224;SDS011;28834;48.720;9.208;2022-07-29T07:12:18;2.90;;;2.50;;
43224;SDS011;28834;48.720;9.208;2022-07-29T07:14:44;3.60;;;3.30;;
43224;SDS011;28834;48.720;9.208;2022-07-29T07:17:10;3.43;;;3.13;;
43224;SDS011;28834;48.720;9.208;2022-07-29T07:19:35;3.20;;;2.97;;
43224;SDS011;28834;48.720;9.208;2022-07-29T07:22:01;2.97;;;2.73;;
43224;SDS011;28834;48.720;9.208;2022-07-29T07:24:26;3.73;;;3.00;;
43224;SDS011;28834;48.720;9.208;2022-07-29T07:26:52;3.80;;;3.50;;
43224;SDS011;28834;48.720;9.208;2022-07-29T07:29:18;3.73;;;3.43;;
43224;SDS011;28834;48.720;9.208;2022-07-29T07:31:43;4.07;;;3.67;;
43224;SDS011;28834;48.720;9.208;2022-07-29T07:34:09;4.17;;;3.67;;
43224;SDS011;28834;48.720;9.208;2022-07-29T07:36:35;3.50;;;3.20;;
43224;SDS011;28834;48.720;9.208;2022-07-29T07:39:00;3.40;;;3.10;;
43224;SDS011;28834;48.720;9.208;2022-07-29T07:41:26;3.60;;;3.30;;
43224;SDS011;28834;48.720;9.208;2022-07-29T07:43:51;5.10;;;3.60;;
43224;SDS011;28834;48.720;9.208;2022-07-29T07:46:17;3.80;;;3.50;;
43224;SDS011;28834;48.720;9.208;2022-07-29T07:48:42;3.90;;;3.60;;
43224;SDS011;28834;48.720;9.208;2022-07-29T07:51:08;4.03;;;3.63;;
43224;SDS011;28834;48.720;9.208;2022-07-29T07:53:34;4.73;;;3.77;;
43224;SDS011;28834;48.720;9.208;2022-07-29T07:56:00;4.03;;;3.73;;
43224;SDS011;28834;48.720;9.208;2022-07-29T07:58:25;4.33;;;3.80;;
43224;SDS011;28834;48.720;9.208;2022-07-29T08:00:51;6.53;;;3.83;;
43224;SDS011;28834;48.720;9.208;2022-07-29T08:03:17;3.50;;;3.27;;
43224;SDS011;28834;48.720;9.208;2022-07-29T08:05:42;3.97;;;3.57;;
43224;SDS011;28834;48.720;9.208;2022-07-29T08:08:08;3.83;;;3.60;;
43224;SDS011;28834;48.720;9.208;2022-07-29T08:10:37;6.33;;;4.10;;
43224;SDS011;28834;48.720;9.208;2022-07-29T08:13:18;3.93;;;3.50;;
43224;SDS011;28834;48.720;9.208;2022-07-29T08:15:46;4.87;;;3.87;;
43224;SDS011;28834;48.720;9.208;2022-07-29T08:18:12;4.07;;;3.67;;
43224;SDS011;28834;48.720;9.208;2022-07-29T08:20:38;3.90;;;3.33;;
43224;SDS011;28834;48.720;9.208;2022-07-29T08:23:05;4.40;;;3.50;;
43224;SDS011;28834;48.720;9.208;2022-07-29T08:25:34;4.57;;;4.17;;
43224;SDS011;28834;48.720;9.208;2022-07-29T08:28:00;4.03;;;3.73;;
43224;SDS011;28834;48.720;9.208;2022-07-29T08:30:26;4.10;;;3.80;;
43224;SDS011;28834;48.720;9.208;2022-07-29T08:32:52;4.13;;;3.73;;
43224;SDS011;28834;48.720;9.208;2022-07-29T08:35:18;4.25;;;3.95;;
43224;SDS011;28834;48.720;9.208;2022-07-29T08:37:44;4.27;;;3.47;;
43224;SDS011;28834;48.720;9.208;2022-07-29T08:40:10;3.50;;;3.20;;
43224;SDS011;28834;48.720;9.208;2022-07-29T08:42:36;4.13;;;3.38;;
43224;SDS011;28834;48.720;9.208;2022-07-29T08:45:02;4.40;;;3.13;;
43224;SDS011;28834;48.720;9.208;2022-07-29T08:47:29;4.43;;;4.03;;
43224;SDS011;28834;48.720;9.208;2022-07-29T08:49:55;5.30;;;4.13;;
43224;SDS011;28834;48.720;9.208;2022-07-29T08:52:21;4.03;;;3.72;;
43224;SDS011;28834;48.720;9.208;2022-07-29T08:54:49;4.20;;;3.78;;
43224;SDS011;28834;48.720;9.208;2022-07-29T08:57:17;4.47;;;3.80;;
43224;SDS011;28834;48.720;9.208;2022-07-29T08:59:44;3.75;;;3.38;;
43224;SDS011;28834;48.720;9.208;2022-07-29T09:02:22;4.40;;;4.03;;
43224;SDS011;28834;48.720;9.208;2022-07-29T09:04:49;4.20;;;3.80;;
43224;SDS011;28834;48.720;9.208;2022-07-29T09:07:16;3.95;;;3.65;;
43224;SDS011;28834;48.720;9.208;2022-07-29T09:09:43;4.25;;;3.85;;
43224;SDS011;28834;48.720;9.208;2022-07-29T09:12:09;4.68;;;4.28;;
43224;SDS011;28834;48.720;9.208;2022-07-29T09:14:39;5.00;;;4.43;;
43224;SDS011;28834;48.720;9.208;2022-07-29T09:17:05;4.38;;;3.80;;
43224;SDS011;28834;48.720;9.208;2022-07-29T09:19:32;4.15;;;3.85;;
43224;SDS011;28834;48.720;9.208;2022-07-29T09:22:00;4.88;;;4.32;;
43224;SDS011;28834;48.720;9.208;2022-07-29T09:24:41;4.28;;;3.40;;
43224;SDS011;28834;48.720;9.208;2022-07-29T09:27:09;3.88;;;3.50;;
43224;SDS011;28834;48.720;9.208;2022-07-29T09:29:36;4.25;;;3.63;;
43224;SDS011;28834;48.720;9.208;2022-07-29T09:32:05;6.30;;;4.03;;
43224;SDS011;28834;48.720;9.208;2022-07-29T09:34:34;4.28;;;3.67;;
43224;SDS011;28834;48.720;9.208;2022-07-29T09:36:59;4.70;;;4.25;;
43224;SDS011;28834;48.720;9.208;2022-07-29T09:42:03;4.53;;;4.22;;
43224;SDS011;28834;48.720;9.208;2022-07-29T09:44:42;4.40;;;4.10;;
43224;SDS011;28834;48.720;9.208;2022-07-29T09:47:13;5.88;;;4.00;;
43224;SDS011;28834;48.720;9.208;2022-07-29T09:49:55;4.35;;;4.05;;
43224;SDS011;28834;48.720;9.208;2022-07-29T09:52:24;5.03;;;4.45;;
43224;SDS011;28834;48.720;9.208;2022-07-29T09:54:51;4.20;;;3.80;;
43224;SDS011;28834;48.720;9.208;2022-07-29T09:57:26;4.57;;;4.22;;
43224;SDS011;28834;48.720;9.208;2022-07-29T10:00:11;5.28;;;3.90;;
43224;SDS011;28834;48.720;9.208;2022-07-29T10:02:41;5.38;;;4.18;;
43224;SDS011;28834;48.720;9.208;2022-07-29T10:07:51;4.90;;;4.50;;
43224;SDS011;28834;48.720;9.208;2022-07-29T10:10:22;5.13;;;4.65;;
43224;SDS011;28834;48.720;9.208;2022-07-29T10:12:50;4.93;;;4.43;;
43224;SDS011;28834;48.720;9.208;2022-07-29T10:15:27;4.10;;;3.80;;
43224;SDS011;28834;48.720;9.208;2022-07-29T10:17:57;5.00;;;4.50;;
43224;SDS011;28834;48.720;9.208;2022-07-29T10:20:24;4.72;;;4.32;;
43224;SDS011;28834;48.720;9.208;2022-07-29T10:22:51;4.78;;;4.00;;
43224;SDS011;28834;48.720;9.208;2022-07-29T10:25:18;4.78;;;4.07;;
43224;SDS011;28834;48.720;9.208;2022-07-29T10:27:44;4.85;;;4.28;;
43224;SDS011;28834;48.720;9.208;2022-07-29T10:30:11;4.93;;;4.53;;
43224;SDS011;28834;48.720;9.208;2022-07-29T10:43:51;6.00;;;5.50;;
43224;SDS011;28834;48.720;9.208;2022-07-29T10:46:19;4.90;;;3.80;;
43224;SDS011;28834;48.720;9.208;2022-07-29T10:54:18;4.57;;;4.18;;
43224;SDS011;28834;48.720;9.208;2022-07-29T10:59:48;5.00;;;4.45;;
43224;SDS011;28834;48.720;9.208;2022-07-29T11:05:07;5.40;;;4.80;;
43224;SDS011;28834;48.720;9.208;2022-07-29T11:07:34;5.20;;;4.80;;
43224;SDS011;28834;48.720;9.208;2022-07-29T11:23:26;8.83;;;6.20;;
43224;SDS011;28834;48.720;9.208;2022-07-29T11:34:16;5.07;;;4.40;;
43224;SDS011;28834;48.720;9.208;2022-07-29T11:37:19;5.60;;;5.00;;
43224;SDS011;28834;48.720;9.208;2022-07-29T11:39:40;5.63;;;5.23;;
43224;SDS011;28834;48.720;9.208;2022-07-29T11:45:11;4.80;;;4.40;;
43224;SDS011;28834;48.720;9.208;2022-07-29T11:47:39;5.17;;;4.23;;
43224;SDS011;28834;48.720;9.208;2022-07-29T11:50:08;4.10;;;3.40;;
43224;SDS011;28834;48.720;9.208;2022-07-29T11:52:36;5.27;;;4.00;;
43224;SDS011;28834;48.720;9.208;2022-07-29T11:55:16;3.90;;;3.53;;
43224;SDS011;28834;48.720;9.208;2022-07-29T11:57:48;2.90;;;2.70;;
43224;SDS011;28834;48.720;9.208;2022-07-29T12:00:48;4.17;;;3.33;;
43224;SDS011;28834;48.720;9.208;2022-07-29T12:03:09;3.40;;;3.10;;
43224;SDS011;28834;48.720;9.208;2022-07-29T12:10:33;3.80;;;3.50;;
43224;SDS011;28834;48.720;9.208;2022-07-29T12:12:58;5.27;;;3.60;;
43224;SDS011;28834;48.720;9.208;2022-07-29T12:15:24;4.00;;;3.60;;
43224;SDS011;28834;48.720;9.208;2022-07-29T12:17:51;4.43;;;4.03;;
43224;SDS011;28834;48.720;9.208;2022-07-29T12:20:24;4.80;;;4.30;;
43224;SDS011;28834;48.720;9.208;2022-07-29T12:22:54;4.37;;;4.07;;
43224;SDS011;28834;48.720;9.208;2022-07-29T12:25:21;3.93;;;3.63;;
43224;SDS011;28834;48.720;9.208;2022-07-29T12:27:56;3.73;;;3.37;;
43224;SDS011;28834;48.720;9.208;2022-07-29T12:30:23;4.40;;;4.00;;
43224;SDS011;28834;48.720;9.208;2022-07-29T12:33:25;4.30;;;3.80;;
43224;SDS011;28834;48.720;9.208;2022-07-29T12:35:56;5.93;;;4.70;;
43224;SDS011;28834;48.720;9.208;2022-07-29T12:38:23;5.07;;;4.57;;
43224;SDS011;28834;48.720;9.208;2022-07-29T12:40:51;7.03;;;4.90;;
43224;SDS011;28834;48.720;9.208;2022-07-29T12:43:19;5.73;;;5.23;;
43224;SDS011;28834;48.720;9.208;2022-07-29T12:45:50;6.73;;;5.83;;
43224;SDS011;28834;48.720;9.208;2022-07-29T12:48:22;6.17;;;5.67;;
43224;SDS011;28834;48.720;9.208;2022-07-29T12:51:04;5.93;;;5.43;;
43224;SDS011;28834;48.720;9.208;2022-07-29T12:53:31;4.90;;;4.47;;
43224;SDS011;28834;48.720;9.208;2022-07-29T12:55:57;7.53;;;6.60;;
43224;SDS011;28834;48.720;9.208;2022-07-29T13:01:15;6.10;;;5.60;;
43224;SDS011;28834;48.720;9.208;2022-07-29T13:03:48;5.20;;;4.70;;
43224;SDS011;28834;48.720;9.208;2022-07-29T13:09:10;5.13;;;4.67;;
43224;SDS011;28834;48.720;9.208;2022-07-29T13:11:45;7.33;;;5.07;;
43224;SDS011;28834;48.720;9.208;2022-07-29T13:22:06;9.63;;;7.43;;
43224;SDS011;28834;48.720;9.208;2022-07-29T13:24:33;8.90;;;8.00;;
43224;SDS011;28834;48.720;9.208;2022-07-29T13:26:59;9.30;;;7.63;;
43224;SDS011;28834;48.720;9.208;2022-07-29T13:29:25;9.60;;;7.83;;
43224;SDS011;28834;48.720;9.208;2022-07-29T13:31:51;8.70;;;7.80;;
43224;SDS011;28834;48.720;9.208;2022-07-29T13:34:17;8.27;;;7.47;;
43224;SDS011;28834;48.720;9.208;2022-07-29T13:36:44;7.50;;;6.80;;
43224;SDS011;28834;48.720;9.208;2022-07-29T13:39:10;7.83;;;7.17;;
43224;SDS011;28834;48.720;9.208;2022-07-29T13:41:36;8.77;;;8.07;;
43224;SDS011;28834;48.720;9.208;2022-07-29T13:44:02;7.80;;;7.20;;
43224;SDS011;28834;48.720;9.208;2022-07-29T13:46:27;8.97;;;8.17;;
43224;SDS011;28834;48.720;9.208;2022-07-29T13:48:53;9.60;;;8.70;;
43224;SDS011;28834;48.720;9.208;2022-07-29T13:51:19;9.40;;;8.60;;
43224;SDS011;28834;48.720;9.208;2022-07-29T13:53:44;9.93;;;9.03;;
43224;SDS011;28834;48.720;9.208;2022-07-29T13:56:10;10.10;;;9.30;;
43224;SDS011;28834;48.720;9.208;2022-07-29T13:58:35;10.63;;;9.63;;
43224;SDS011;28834;48.720;9.208;2022-07-29T14:01:01;10.13;;;9.30;;
43224;SDS011;28834;48.720;9.208;2022-07-29T14:03:27;9.67;;;8.80;;
43224;SDS011;28834;48.720;9.208;2022-07-29T14:05:52;8.90;;;8.07;;
43224;SDS011;28834;48.720;9.208;2022-07-29T14:08:18;9.17;;;8.27;;
43224;SDS011;28834;48.720;9.208;2022-07-29T14:10:44;9.07;;;8.30;;
43224;SDS011;28834;48.720;9.208;2022-07-29T14:13:09;10.60;;;9.73;;
43224;SDS011;28834;48.720;9.208;2022-07-29T14:15:35;8.63;;;7.93;;
43224;SDS011;28834;48.720;9.208;2022-07-29T14:18:00;9.63;;;8.83;;
43224;SDS011;28834;48.720;9.208;2022-07-29T14:20:26;10.37;;;9.40;;
43224;SDS011;28834;48.720;9.208;2022-07-29T14:22:54;10.20;;;9.33;;
43224;SDS011;28834;48.720;9.208;2022-07-29T14:25:20;10.57;;;9.50;;
43224;SDS011;28834;48.720;9.208;2022-07-29T14:27:45;10.70;;;9.70;;
43224;SDS011;28834;48.720;9.208;2022-07-29T14:30:11;10.47;;;9.43;;
43224;SDS011;28834;48.720;9.208;2022-07-29T14:32:37;10.17;;;9.17;;
43224;SDS011;28834;48.720;9.208;2022-07-29T14:35:03;10.30;;;9.47;;
43224;SDS011;28834;48.720;9.208;2022-07-29T14:37:29;11.53;;;10.40;;
43224;SDS011;28834;48.720;9.208;2022-07-29T14:39:55;13.00;;;11.87;;
43224;SDS011;28834;48.720;9.208;2022-07-29T14:42:27;12.57;;;11.47;;
43224;SDS011;28834;48.720;9.208;2022-07-29T14:44:52;12.37;;;11.30;;
43224;SDS011;28834;48.720;9.208;2022-07-29T14:47:18;12.13;;;10.87;;
43224;SDS011;28834;48.720;9.208;2022-07-29T14:49:44;12.83;;;11.87;;
43224;SDS011;28834;48.720;9.208;2022-07-29T14:52:10;13.17;;;12.07;;
43224;SDS011;28834;48.720;9.208;2022-07-29T14:54:35;11.17;;;10.23;;
43224;SDS011;28834;48.720;9.208;2022-07-29T14:57:01;11.97;;;10.90;;
43224;SDS011;28834;48.720;9.208;2022-07-29T14:59:26;14.77;;;11.50;;
43224;SDS011;28834;48.720;9.208;2022-07-29T15:01:52;9.77;;;8.93;;
43224;SDS011;28834;48.720;9.208;2022-07-29T15:04:18;11.63;;;10.70;;
43224;SDS011;28834;48.720;9.208;2022-07-29T15:06:43;10.10;;;9.20;;
43224;SDS011;28834;48.720;9.208;2022-07-29T15:09:09;11.10;;;9.20;;
43224;SDS011;28834;48.720;9.208;2022-07-29T15:11:35;10.27;;;9.47;;
43224;SDS011;28834;48.720;9.208;2022-07-29T15:14:00;10.53;;;9.63;;
43224;SDS011;28834;48.720;9.208;2022-07-29T15:16:26;9.33;;;8.50;;
43224;SDS011;28834;48.720;9.208;2022-07-29T15:18:51;10.27;;;9.47;;
43224;SDS011;28834;48.720;9.208;2022-07-29T15:21:17;9.30;;;8.60;;
43224;SDS011;28834;48.720;9.208;2022-07-29T15:23:42;8.17;;;7.40;;
43224;SDS011;28834;48.720;9.208;2022-07-29T15:26:08;7.50;;;6.80;;
43224;SDS011;28834;48.720;9.208;2022-07-29T15:28:34;7.83;;;7.07;;
43224;SDS011;28834;48.720;9.208;2022-07-29T15:31:00;7.90;;;7.20;;
43224;SDS011;28834;48.720;9.208;2022-07-29T15:33:25;6.97;;;6.40;;
43224;SDS011;28834;48.720;9.208;2022-07-29T15:35:51;7.10;;;6.60;;
43224;SDS011;28834;48.720;9.208;2022-07-29T15:38:17;7.57;;;6.90;;
43224;SDS011;28834;48.720;9.208;2022-07-29T15:40:43;7.47;;;6.63;;
43224;SDS011;28834;48.720;9.208;2022-07-29T15:43:09;7.43;;;6.73;;
43224;SDS011;28834;48.720;9.208;2022-07-29T15:45:43;8.40;;;7.57;;
43224;SDS011;28834;48.720;9.208;2022-07-29T15:48:29;6.97;;;6.47;;
43224;SDS011;28834;48.720;9.208;2022-07-29T15:50:54;7.43;;;6.73;;
43224;SDS011;28834;48.720;9.208;2022-07-29T15:53:20;7.73;;;7.17;;
43224;SDS011;28834;48.720;9.208;2022-07-29T15:55:45;7.33;;;6.73;;
43224;SDS011;28834;48.720;9.208;2022-07-29T15:58:11;8.00;;;6.50;;
43224;SDS011;28834;48.720;9.208;2022-07-29T16:00:37;6.87;;;6.37;;
43224;SDS011;28834;48.720;9.208;2022-07-29T16:03:02;8.00;;;7.40;;
43224;SDS011;28834;48.720;9.208;2022-07-29T16:05:28;8.07;;;7.47;;
43224;SDS011;28834;48.720;9.208;2022-07-29T16:07:54;6.97;;;6.47;;